weather.gov     
National Weather Service

Terminal Aerodrome Forecast
NWS Homepage
This page is being discontinued on March 12, 2014.
The same data is available at this site. Please update your bookmarks.
Thank you, and we apologize for the inconvenience.
Please send an email to SR-SRH.Webmaster@noaa.gov with any concerns.


Current Version
Previous Version:    01  02  03  04  05  06  07  08  09  10  11  12  13  14  15  16  17  18  19  20  21  22  23  24  25  26  27  28  29  30  
   31  32  33  34  35  
[Printable]
245
FTUS44 KHGX 211831 AAA
TAFCXO
TAF AMD
KCXO 211831Z 2119/2218 14010KT 6SM -RA BR OVC009
     FM212000 14012KT P6SM OVC015
      TEMPO 2120/2123 -RA
     FM220000 13007KT P6SM SCT015 OVC025
     FM220300 13016KT P6SM BKN015
     FM220600 13015KT P6SM VCSH BKN015=




245
FTUS44 KHGX 211831 AAA
TAFCXO
TAF AMD
KCXO 211831Z 2119/2218 14010KT 6SM -RA BR OVC009
     FM212000 14012KT P6SM OVC015
      TEMPO 2120/2123 -RA
     FM220000 13007KT P6SM SCT015 OVC025
     FM220300 13016KT P6SM BKN015
     FM220600 13015KT P6SM VCSH BKN015=


U.S. Dept. of Commerce
NOAA National Weather Service
1325 East West Highway
Silver Spring, MD 20910
E-mail: w-nws.webmaster@noaa.gov
Page last modified: May 16, 2007
NATIONAL WEATHER SERVICE: for Safety, for Work, for Fun - FOR LIFE